createdAt,value
2023-02-15T00:00:02.624Z,89.20
2023-02-15T00:02:29.121Z,74.60
2023-02-15T00:04:56.979Z,72.30
2023-02-15T00:07:23.577Z,69.40
2023-02-15T00:09:50.071Z,64.40
2023-02-15T00:12:17.634Z,59.40
2023-02-15T00:14:44.679Z,59.60
2023-02-15T00:17:11.628Z,63.00
2023-02-15T00:19:38.211Z,66.00
2023-02-15T00:22:04.858Z,60.00
2023-02-15T00:24:31.381Z,60.70
2023-02-15T00:26:58.042Z,62.50
2023-02-15T00:29:24.782Z,64.30
2023-02-15T00:31:53.135Z,69.20
2023-02-15T00:34:25.275Z,87.30
2023-02-15T00:36:52.532Z,89.90
2023-02-15T00:39:20.098Z,89.00
2023-02-15T00:41:47.784Z,71.60
2023-02-15T00:44:14.809Z,70.20
2023-02-15T00:46:41.373Z,68.00
2023-02-15T00:49:08.030Z,67.70
2023-02-15T00:51:34.540Z,74.00
2023-02-15T00:54:01.143Z,72.90
2023-02-15T00:56:29.378Z,74.00
2023-02-15T00:58:56.463Z,75.20
2023-02-15T01:01:24.557Z,81.20
2023-02-15T01:03:51.267Z,59.70
2023-02-15T01:06:18.192Z,74.90
2023-02-15T01:08:47.004Z,70.00
2023-02-15T01:11:23.025Z,79.50
2023-02-15T01:13:57.569Z,78.50
2023-02-15T01:16:27.660Z,73.20
2023-02-15T01:18:55.591Z,57.70
2023-02-15T01:21:25.389Z,67.20
2023-02-15T01:23:51.880Z,93.80
2023-02-15T01:26:18.717Z,98.00
2023-02-15T01:28:45.742Z,76.70
2023-02-15T01:31:16.462Z,73.40
2023-02-15T01:33:42.994Z,67.40
2023-02-15T01:36:09.744Z,53.10
2023-02-15T01:38:37.137Z,45.70
2023-02-15T01:41:22.696Z,43.50
2023-02-15T01:44:05.042Z,49.10
2023-02-15T01:46:52.904Z,58.60
2023-02-15T01:49:26.096Z,69.20
2023-02-15T01:51:53.799Z,65.90
2023-02-15T01:54:30.509Z,63.10
2023-02-15T01:57:03.348Z,66.70
2023-02-15T01:59:32.165Z,65.00
2023-02-15T02:02:01.349Z,59.20
2023-02-15T02:04:45.359Z,53.30
2023-02-15T02:07:15.988Z,51.40
2023-02-15T02:09:42.920Z,34.30
2023-02-15T02:24:33.242Z,55.50
2023-02-15T02:27:30.721Z,56.70
2023-02-15T02:30:32.041Z,53.70
2023-02-15T02:33:43.895Z,54.30
2023-02-15T02:36:43.094Z,60.60
2023-02-15T02:39:46.391Z,58.70
2023-02-15T02:42:24.911Z,49.20
2023-02-15T02:45:04.015Z,49.00
2023-02-15T02:47:55.521Z,49.20
2023-02-15T02:50:29.896Z,51.20
2023-02-15T02:52:59.147Z,45.60
2023-02-15T02:55:36.666Z,53.80
2023-02-15T02:58:18.023Z,51.60
2023-02-15T03:00:54.167Z,44.90
2023-02-15T03:03:53.719Z,47.00
2023-02-15T03:06:34.080Z,44.30
2023-02-15T03:09:19.036Z,40.90
2023-02-15T03:11:47.049Z,25.10
2023-02-15T03:14:16.928Z,29.40
2023-02-15T03:16:48.749Z,24.70
2023-02-15T03:19:24.550Z,29.00
2023-02-15T03:22:10.327Z,28.30
2023-02-15T03:24:46.930Z,32.90
2023-02-15T03:27:27.003Z,32.10
2023-02-15T03:29:59.657Z,37.20
2023-02-15T03:32:32.004Z,30.50
2023-02-15T03:34:58.614Z,28.00
2023-02-15T03:37:45.394Z,31.90
2023-02-15T03:40:51.381Z,30.90
2023-02-15T03:43:52.986Z,26.40
2023-02-15T03:46:31.835Z,30.10
2023-02-15T03:49:11.739Z,26.30
2023-02-15T03:51:43.529Z,26.00
2023-02-15T03:54:43.218Z,27.00
2023-02-15T03:57:40.191Z,26.20
2023-02-15T04:00:39.824Z,26.10
2023-02-15T04:03:44.969Z,25.60
2023-02-15T04:06:11.364Z,31.20
2023-02-15T04:08:56.443Z,28.90
2023-02-15T04:11:22.823Z,27.20
2023-02-15T04:13:57.671Z,25.40
2023-02-15T04:16:25.590Z,26.10
2023-02-15T04:19:11.034Z,29.10
2023-02-15T04:21:55.941Z,30.80
2023-02-15T04:24:40.827Z,32.90
2023-02-15T04:27:07.239Z,29.40
2023-02-15T04:29:33.797Z,29.80
2023-02-15T04:32:02.589Z,31.00
2023-02-15T04:34:29.193Z,29.70
2023-02-15T04:36:55.838Z,27.40
2023-02-15T04:39:22.235Z,32.30
2023-02-15T04:41:48.906Z,28.40
2023-02-15T04:44:15.750Z,31.30
2023-02-15T04:46:42.165Z,29.60
2023-02-15T04:49:09.565Z,32.10
2023-02-15T04:51:36.062Z,36.00
2023-02-15T04:54:02.483Z,49.70
2023-02-15T04:56:30.920Z,44.50
2023-02-15T04:58:57.941Z,40.40
2023-02-15T05:01:24.346Z,38.80
2023-02-15T05:03:50.811Z,39.60
2023-02-15T05:06:17.346Z,42.30
2023-02-15T05:08:43.728Z,38.30
2023-02-15T05:11:10.221Z,37.30
2023-02-15T05:13:36.715Z,33.30
2023-02-15T05:16:03.616Z,33.20
2023-02-15T05:18:30.341Z,37.40
2023-02-15T05:20:56.940Z,38.90
2023-02-15T05:23:23.450Z,42.20
2023-02-15T05:26:10.272Z,43.10
2023-02-15T05:28:39.260Z,46.30
2023-02-15T05:31:17.622Z,50.30
2023-02-15T05:33:45.662Z,51.40
2023-02-15T05:36:12.689Z,51.50
2023-02-15T05:38:40.252Z,49.50
2023-02-15T05:41:07.848Z,42.80
2023-02-15T05:43:35.002Z,36.90
2023-02-15T05:46:03.261Z,27.90
2023-02-15T05:48:30.549Z,32.20
2023-02-15T05:51:09.017Z,31.80
2023-02-15T05:53:38.917Z,36.30
2023-02-15T05:56:07.996Z,34.30
2023-02-15T05:58:38.209Z,28.80
2023-02-15T06:01:16.348Z,28.00
2023-02-15T06:03:43.198Z,26.70
2023-02-15T06:06:10.262Z,27.50
2023-02-15T06:08:38.575Z,31.10
2023-02-15T06:11:06.084Z,32.70
2023-02-15T06:13:35.406Z,27.10
2023-02-15T06:16:03.440Z,24.20
2023-02-15T06:18:30.074Z,26.50
2023-02-15T06:20:56.459Z,27.90
2023-02-15T06:23:22.872Z,27.20
2023-02-15T06:25:49.538Z,35.10
2023-02-15T06:28:15.940Z,33.30
2023-02-15T06:30:42.418Z,31.00
2023-02-15T06:33:08.897Z,31.30
2023-02-15T06:35:35.464Z,37.20
2023-02-15T06:38:02.029Z,47.50
2023-02-15T06:40:28.412Z,49.00
2023-02-15T06:42:54.838Z,40.50
2023-02-15T06:45:21.268Z,34.60
2023-02-15T06:47:47.666Z,32.70
2023-02-15T06:50:14.077Z,37.40
2023-02-15T06:52:40.435Z,32.70
2023-02-15T06:55:07.534Z,35.50
2023-02-15T06:57:34.148Z,35.60
2023-02-15T07:00:00.767Z,34.60
2023-02-15T07:02:27.311Z,33.70
2023-02-15T07:04:53.728Z,42.50
2023-02-15T07:07:20.146Z,36.40
2023-02-15T07:09:46.552Z,35.30
2023-02-15T07:12:31.625Z,34.90
2023-02-15T07:14:59.207Z,36.50
2023-02-15T07:17:36.864Z,42.60
2023-02-15T07:20:18.748Z,33.50
2023-02-15T07:22:45.983Z,30.90
2023-02-15T07:25:13.305Z,31.70
2023-02-15T07:27:41.099Z,31.50
2023-02-15T07:30:13.543Z,31.80
2023-02-15T07:33:00.826Z,34.10
2023-02-15T07:35:28.285Z,64.50
2023-02-15T07:37:55.145Z,108.70
2023-02-15T07:40:24.242Z,42.10
2023-02-15T07:42:54.343Z,58.70
2023-02-15T07:45:22.165Z,43.10
2023-02-15T07:47:48.662Z,37.80
2023-02-15T07:50:15.369Z,41.20
2023-02-15T07:52:41.755Z,59.00
2023-02-15T07:55:10.075Z,46.70
2023-02-15T07:57:37.080Z,53.30
2023-02-15T08:00:05.127Z,112.70
2023-02-15T08:02:31.594Z,115.80
2023-02-15T08:04:58.111Z,46.60
2023-02-15T08:07:24.495Z,37.40
2023-02-15T08:09:51.868Z,36.00
2023-02-15T08:12:18.337Z,33.80
2023-02-15T08:14:44.800Z,32.60
2023-02-15T08:17:11.221Z,37.70
2023-02-15T08:19:37.829Z,41.40
2023-02-15T08:22:07.984Z,44.80
2023-02-15T08:24:40.638Z,43.60
2023-02-15T08:27:10.802Z,46.00
2023-02-15T08:29:38.724Z,41.00
2023-02-15T08:32:10.049Z,56.70
2023-02-15T08:34:42.982Z,47.80
2023-02-15T08:37:10.284Z,50.10
2023-02-15T08:39:36.721Z,60.10
2023-02-15T08:42:03.683Z,51.10
2023-02-15T08:44:30.527Z,57.40
2023-02-15T08:47:03.773Z,61.50
2023-02-15T08:49:30.495Z,55.60
2023-02-15T08:51:56.943Z,49.50
2023-02-15T08:54:23.665Z,50.60
2023-02-15T08:56:50.132Z,138.80
2023-02-15T08:59:23.152Z,65.60
2023-02-15T09:01:52.571Z,49.80
2023-02-15T09:04:20.800Z,52.40
2023-02-15T09:06:49.869Z,41.80
2023-02-15T09:09:18.736Z,47.40
2023-02-15T09:11:49.334Z,43.60
2023-02-15T09:14:25.526Z,55.40
2023-02-15T09:16:53.880Z,48.20
2023-02-15T09:19:23.219Z,47.30
2023-02-15T09:21:50.115Z,41.50
2023-02-15T09:24:19.018Z,45.40
2023-02-15T09:26:48.951Z,50.40
2023-02-15T09:29:17.991Z,46.40
2023-02-15T09:31:49.663Z,38.80
2023-02-15T09:34:21.044Z,46.50
2023-02-15T09:36:47.976Z,47.10
2023-02-15T09:39:22.456Z,40.50
2023-02-15T09:42:33.845Z,36.50
2023-02-15T09:45:27.976Z,37.90
2023-02-15T09:48:03.363Z,35.80
2023-02-15T09:51:02.657Z,33.10
2023-02-15T09:53:59.527Z,33.70
2023-02-15T09:57:20.339Z,32.10
2023-02-15T10:00:14.984Z,35.70
2023-02-15T10:03:06.861Z,37.70
2023-02-15T10:05:49.826Z,37.10
2023-02-15T10:08:49.516Z,40.60
2023-02-15T10:12:08.248Z,35.20
2023-02-15T10:14:58.492Z,29.60
2023-02-15T10:17:52.272Z,33.10
2023-02-15T10:20:30.027Z,33.30
2023-02-15T10:23:21.156Z,28.50
2023-02-15T10:26:12.540Z,35.00
2023-02-15T10:29:09.697Z,38.80
2023-02-15T10:31:57.887Z,36.40
2023-02-15T10:35:31.808Z,38.20
2023-02-15T10:38:16.646Z,29.20
2023-02-15T10:41:14.809Z,27.90
2023-02-15T10:44:09.343Z,30.80
2023-02-15T10:46:55.127Z,29.40
2023-02-15T10:49:43.477Z,29.40
2023-02-15T10:52:45.557Z,33.60
2023-02-15T10:55:46.257Z,28.20
2023-02-15T10:58:45.794Z,33.90
2023-02-15T11:01:31.877Z,35.30
2023-02-15T11:04:29.896Z,34.10
2023-02-15T11:07:05.608Z,29.30
2023-02-15T11:09:43.664Z,40.80
2023-02-15T11:12:17.428Z,34.80
2023-02-15T11:15:36.424Z,31.50
2023-02-15T11:18:16.584Z,32.80
2023-02-15T11:20:55.380Z,29.60
2023-02-15T11:23:22.956Z,47.20
2023-02-15T11:26:26.533Z,43.80
2023-02-15T11:29:37.552Z,38.80
2023-02-15T11:32:26.028Z,43.30
2023-02-15T11:35:11.968Z,43.20
2023-02-15T11:37:51.648Z,46.50
2023-02-15T11:40:42.030Z,43.40
2023-02-15T11:43:24.807Z,31.70
2023-02-15T11:45:51.645Z,37.90
2023-02-15T11:48:19.130Z,37.50
2023-02-15T11:50:47.046Z,40.10
2023-02-15T11:53:16.829Z,39.20
2023-02-15T11:55:47.491Z,36.90
2023-02-15T11:58:42.703Z,42.50
2023-02-15T12:01:24.398Z,42.60
2023-02-15T12:04:00.674Z,50.00
2023-02-15T12:06:53.008Z,49.80
2023-02-15T12:09:37.039Z,45.30
2023-02-15T12:12:36.282Z,40.40
2023-02-15T12:15:09.716Z,41.00
2023-02-15T12:17:55.430Z,55.50
2023-02-15T12:20:37.198Z,79.80
2023-02-15T12:23:12.600Z,53.00
2023-02-15T12:25:44.596Z,66.00
2023-02-15T12:28:31.489Z,53.20
2023-02-15T12:30:59.543Z,53.30
2023-02-15T12:33:46.460Z,63.10
2023-02-15T12:36:21.436Z,50.20
2023-02-15T12:39:28.438Z,57.50
2023-02-15T12:41:54.908Z,53.90
2023-02-15T12:44:29.728Z,54.00
2023-02-15T12:47:19.726Z,49.80
2023-02-15T12:50:12.276Z,47.60
2023-02-15T12:52:40.277Z,48.10
2023-02-15T12:55:31.037Z,52.00
2023-02-15T12:58:17.325Z,48.30
2023-02-15T13:00:43.921Z,43.30
2023-02-15T13:03:21.270Z,44.80
2023-02-15T13:05:52.813Z,48.80
2023-02-15T13:08:33.980Z,43.50
2023-02-15T13:11:11.789Z,41.80
2023-02-15T13:13:57.870Z,42.20
2023-02-15T13:16:36.018Z,61.00
2023-02-15T13:19:15.624Z,70.30
2023-02-15T13:21:48.023Z,56.60
2023-02-15T13:24:46.477Z,58.10
2023-02-15T13:27:20.569Z,59.20
2023-02-15T13:30:00.216Z,49.90
2023-02-15T13:32:37.268Z,48.30
2023-02-15T13:35:08.221Z,57.70
2023-02-15T13:38:16.963Z,57.10
2023-02-15T13:40:56.400Z,52.20
2023-02-15T13:43:51.620Z,48.40
2023-02-15T13:46:36.895Z,46.70
2023-02-15T13:49:44.674Z,52.90
2023-02-15T13:52:29.538Z,51.10
2023-02-15T13:55:58.360Z,43.80
2023-02-15T13:58:48.734Z,42.80
2023-02-15T14:01:36.123Z,50.70
2023-02-15T14:04:48.269Z,52.90
2023-02-15T14:08:12.906Z,51.10
2023-02-15T14:11:05.206Z,56.30
2023-02-15T14:14:01.811Z,59.20
2023-02-15T14:17:00.673Z,52.70
2023-02-15T14:19:47.207Z,44.70
2023-02-15T14:22:38.866Z,45.00
2023-02-15T14:25:44.823Z,49.70
2023-02-15T14:28:52.109Z,47.70
2023-02-15T14:31:29.372Z,48.30
2023-02-15T14:34:00.424Z,54.00
2023-02-15T14:36:31.233Z,53.20
2023-02-15T14:39:41.810Z,55.70
2023-02-15T14:42:38.077Z,54.70
2023-02-15T14:45:44.648Z,56.00
2023-02-15T14:48:26.881Z,52.90
2023-02-15T14:50:54.127Z,60.40
2023-02-15T14:53:33.069Z,45.80
2023-02-15T14:56:14.720Z,52.80
2023-02-15T14:58:57.222Z,53.40
2023-02-15T15:01:33.998Z,48.00
2023-02-15T15:04:09.352Z,44.60
2023-02-15T15:06:42.102Z,50.50
2023-02-15T15:09:25.479Z,58.30
2023-02-15T15:12:36.900Z,48.80
2023-02-15T15:15:04.935Z,54.10
2023-02-15T15:17:34.411Z,57.40
2023-02-15T15:20:35.315Z,60.20
2023-02-15T15:23:40.178Z,55.80
2023-02-15T15:26:34.423Z,64.60
2023-02-15T15:29:03.001Z,55.80
2023-02-15T15:31:35.544Z,66.80
2023-02-15T15:34:24.574Z,69.90
2023-02-15T15:37:30.232Z,66.90
2023-02-15T15:40:42.780Z,53.70
2023-02-15T15:43:34.071Z,53.00
2023-02-15T15:46:45.122Z,57.70
2023-02-15T15:49:19.027Z,69.80
2023-02-15T15:51:47.391Z,69.40
2023-02-15T15:54:25.189Z,62.20
2023-02-15T15:57:00.366Z,68.90
2023-02-15T15:59:32.189Z,66.80
2023-02-15T16:02:16.855Z,71.50
2023-02-15T16:04:45.192Z,69.10
2023-02-15T16:07:25.829Z,58.30
2023-02-15T16:10:02.637Z,59.50
2023-02-15T16:12:33.198Z,61.00
2023-02-15T16:15:14.219Z,64.30
2023-02-15T16:17:45.043Z,64.90
2023-02-15T16:20:22.907Z,58.40
2023-02-15T16:23:31.376Z,57.20
2023-02-15T16:26:32.050Z,63.20
2023-02-15T16:28:59.613Z,94.00
2023-02-15T16:31:26.106Z,94.70
2023-02-15T16:33:55.956Z,65.70
2023-02-15T16:36:27.077Z,69.30
2023-02-15T16:38:53.375Z,63.70
2023-02-15T16:41:28.183Z,64.00
2023-02-15T16:43:58.848Z,60.20
2023-02-15T16:46:33.428Z,65.50
2023-02-15T16:49:14.948Z,68.30
2023-02-15T16:51:46.021Z,68.70
2023-02-15T16:54:22.663Z,99.50
2023-02-15T16:56:49.507Z,100.10
2023-02-15T16:59:40.530Z,87.70
2023-02-15T17:02:37.228Z,87.50
2023-02-15T17:05:13.035Z,86.70
2023-02-15T17:07:42.965Z,91.80
2023-02-15T17:10:29.012Z,103.90
2023-02-15T17:13:02.367Z,98.20
2023-02-15T17:15:37.429Z,109.40
2023-02-15T17:18:13.631Z,111.40
2023-02-15T17:20:45.104Z,109.80
2023-02-15T17:23:33.348Z,113.30
2023-02-15T17:26:12.007Z,120.30
2023-02-15T17:28:46.233Z,110.00
2023-02-15T17:31:17.386Z,118.30
2023-02-15T17:33:44.556Z,107.10
2023-02-15T17:36:20.232Z,123.80
2023-02-15T17:39:27.028Z,152.00
2023-02-15T17:41:53.930Z,165.00
2023-02-15T17:44:20.483Z,137.80
2023-02-15T17:46:46.948Z,108.50
2023-02-15T17:49:37.999Z,97.10
2023-02-15T17:52:04.807Z,89.70
2023-02-15T17:54:49.754Z,83.20
2023-02-15T17:57:16.364Z,79.90
2023-02-15T18:00:01.590Z,73.90
2023-02-15T18:02:54.007Z,71.90
2023-02-15T18:05:40.048Z,86.50
2023-02-15T18:08:32.566Z,72.10
2023-02-15T18:11:18.468Z,70.90
2023-02-15T18:13:45.206Z,68.80
2023-02-15T18:16:23.919Z,70.70
2023-02-15T18:18:50.509Z,89.40
2023-02-15T18:21:20.351Z,115.20
2023-02-15T18:23:46.909Z,96.80
2023-02-15T18:26:22.296Z,82.20
2023-02-15T18:28:50.509Z,80.90
2023-02-15T18:31:19.031Z,76.80
2023-02-15T18:33:50.103Z,82.70
2023-02-15T18:36:28.098Z,86.60
2023-02-15T18:38:58.007Z,79.00
2023-02-15T18:41:25.141Z,80.30
2023-02-15T18:43:54.448Z,71.50
2023-02-15T18:46:21.943Z,67.10
2023-02-15T18:48:48.622Z,63.40
2023-02-15T18:51:21.626Z,72.20
2023-02-15T18:53:52.877Z,72.20
2023-02-15T18:56:22.858Z,71.60
2023-02-15T18:58:49.457Z,79.80
2023-02-15T19:01:21.282Z,71.70
2023-02-15T19:03:50.604Z,73.60
2023-02-15T19:06:24.803Z,68.50
2023-02-15T19:08:53.101Z,67.90
2023-02-15T19:11:23.627Z,60.70
2023-02-15T19:13:52.602Z,67.30
2023-02-15T19:16:35.086Z,99.50
2023-02-15T19:19:02.170Z,116.50
2023-02-15T19:21:32.026Z,97.70
2023-02-15T19:24:05.094Z,77.40
2023-02-15T19:26:44.567Z,80.80
2023-02-15T19:29:15.814Z,77.30
2023-02-15T19:31:42.708Z,74.30
2023-02-15T19:34:18.699Z,59.70
2023-02-15T19:36:50.025Z,60.30
2023-02-15T19:39:35.387Z,64.70
2023-02-15T19:42:01.846Z,69.70
2023-02-15T19:44:28.333Z,77.90
2023-02-15T19:46:54.756Z,67.80
2023-02-15T19:49:21.308Z,67.60
2023-02-15T19:51:48.482Z,56.70
2023-02-15T19:54:33.280Z,60.40
2023-02-15T19:57:00.500Z,52.80
2023-02-15T19:59:32.998Z,53.50
2023-02-15T20:02:00.037Z,47.60
2023-02-15T20:04:27.256Z,56.80
2023-02-15T20:06:57.582Z,57.90
2023-02-15T20:09:31.745Z,60.90
2023-02-15T20:11:58.270Z,57.00
2023-02-15T20:14:24.814Z,59.30
2023-02-15T20:16:51.714Z,62.90
2023-02-15T20:19:18.189Z,64.30
2023-02-15T20:21:51.818Z,66.20
2023-02-15T20:24:22.184Z,61.60
2023-02-15T20:26:48.749Z,54.20
2023-02-15T20:29:18.523Z,52.30
2023-02-15T20:31:45.772Z,63.40
2023-02-15T20:34:12.306Z,58.00
2023-02-15T20:36:39.987Z,55.70
2023-02-15T20:39:17.322Z,54.10
2023-02-15T20:41:52.775Z,65.20
2023-02-15T20:44:29.024Z,58.10
2023-02-15T20:46:59.003Z,66.10
2023-02-15T20:49:27.470Z,67.30
2023-02-15T20:51:56.418Z,59.90
2023-02-15T20:54:27.098Z,54.80
2023-02-15T20:56:54.390Z,64.80
2023-02-15T20:59:32.461Z,74.90
2023-02-15T21:02:18.207Z,64.90
2023-02-15T21:04:45.548Z,70.40
2023-02-15T21:07:21.725Z,69.40
2023-02-15T21:09:49.256Z,68.20
2023-02-15T21:12:18.843Z,56.00
2023-02-15T21:14:45.986Z,67.60
2023-02-15T21:17:15.884Z,69.80
2023-02-15T21:19:42.671Z,70.10
2023-02-15T21:22:14.121Z,67.40
2023-02-15T21:24:50.676Z,63.50
2023-02-15T21:27:17.767Z,63.70
2023-02-15T21:29:44.204Z,60.80
2023-02-15T21:32:11.174Z,68.30
2023-02-15T21:34:37.812Z,58.00
2023-02-15T21:37:05.090Z,70.60
2023-02-15T21:39:35.662Z,67.50
2023-02-15T21:42:20.546Z,65.80
2023-02-15T21:45:05.318Z,67.70
2023-02-15T21:47:52.677Z,71.60
2023-02-15T21:50:42.459Z,66.20
2023-02-15T21:53:13.851Z,59.60
2023-02-15T21:55:40.338Z,66.90
2023-02-15T21:58:06.917Z,66.80
2023-02-15T22:00:34.371Z,68.80
2023-02-15T22:03:01.936Z,69.80
2023-02-15T22:05:33.260Z,67.60
2023-02-15T22:08:00.668Z,63.70
2023-02-15T22:10:31.455Z,71.00
2023-02-15T22:13:03.349Z,66.20
2023-02-15T22:15:36.786Z,66.80
2023-02-15T22:18:05.664Z,73.30
2023-02-15T22:20:32.155Z,73.50
2023-02-15T22:22:58.512Z,75.30
2023-02-15T22:25:26.657Z,81.40
2023-02-15T22:27:54.779Z,78.60
2023-02-15T22:30:26.267Z,76.90
2023-02-15T22:32:54.767Z,81.10
2023-02-15T22:35:29.256Z,70.00
2023-02-15T22:37:56.380Z,76.70
2023-02-15T22:40:30.582Z,69.30
2023-02-15T22:43:00.542Z,71.60
2023-02-15T22:45:30.609Z,76.60
2023-02-15T22:48:00.296Z,80.00
2023-02-15T22:50:32.542Z,77.30
2023-02-15T22:53:01.975Z,73.00
2023-02-15T22:55:36.441Z,67.30
2023-02-15T22:58:04.335Z,75.30
2023-02-15T23:00:40.305Z,73.90
2023-02-15T23:03:28.985Z,72.80
2023-02-15T23:05:55.427Z,73.40
2023-02-15T23:08:21.967Z,72.10
2023-02-15T23:10:55.754Z,73.80
2023-02-15T23:13:30.126Z,78.30
2023-02-15T23:16:02.145Z,79.20
2023-02-15T23:18:37.912Z,71.50
2023-02-15T23:21:28.748Z,76.30
2023-02-15T23:24:00.903Z,69.20
2023-02-15T23:26:31.592Z,75.50
2023-02-15T23:29:01.297Z,74.80
2023-02-15T23:31:32.490Z,77.40
2023-02-15T23:34:16.559Z,82.60
2023-02-15T23:36:44.388Z,87.80
2023-02-15T23:39:40.214Z,77.30
2023-02-15T23:42:12.735Z,73.90
2023-02-15T23:44:40.720Z,77.00
2023-02-15T23:47:48.250Z,74.90
2023-02-15T23:50:30.447Z,69.50
2023-02-15T23:52:57.702Z,69.60
2023-02-15T23:55:36.210Z,74.40
2023-02-15T23:58:06.220Z,73.10
